Arcola, Pennsylvania
Current Conditions -  °F | °C
As of 2:54 AM on Thursday 18 Dec 2014 (Local Time) from KPTW Reporting Station
Clear Clear  
Wind Chill: 25°   Ceiling: Unl
Heat Index: 33°   Visibility: 10mi
Dew Point: 21°   Wind: 9mph
Humidity: 61%   Direction: 290°WNW
Pressure: 30"   Gusts: 18mph
Location:  40.15°N, 75.46°W
Report Text: KPTW 180754Z AUTO 29008G16KT 10SM CLR 01/M06 A3000 RMK AO2 SLP160 T00061061
Loading
Personal Weather Stations






























Interactive Weather Map New forecast layout! Learn more

10-Day Weather Forecast

Advertisements
Track Severe Weather on mobile